sensor_id;sensor_type;location;lat;lon;timestamp;P1;durP1;ratioP1;P2;durP2;ratioP2
8946;SDS011;4508;48.790;9.028;2023-02-28T00:00:35;4.20;;;3.90;;
8946;SDS011;4508;48.790;9.028;2023-02-28T00:03:04;4.90;;;4.50;;
8946;SDS011;4508;48.790;9.028;2023-02-28T00:05:31;4.63;;;4.22;;
8946;SDS011;4508;48.790;9.028;2023-02-28T00:07:59;4.22;;;3.85;;
8946;SDS011;4508;48.790;9.028;2023-02-28T00:10:26;4.45;;;4.05;;
8946;SDS011;4508;48.790;9.028;2023-02-28T00:12:55;4.70;;;4.07;;
8946;SDS011;4508;48.790;9.028;2023-02-28T00:15:25;4.63;;;4.20;;
8946;SDS011;4508;48.790;9.028;2023-02-28T00:17:52;5.28;;;4.78;;
8946;SDS011;4508;48.790;9.028;2023-02-28T00:20:20;4.50;;;4.20;;
8946;SDS011;4508;48.790;9.028;2023-02-28T00:22:48;4.30;;;3.90;;
8946;SDS011;4508;48.790;9.028;2023-02-28T00:25:16;4.93;;;4.53;;
8946;SDS011;4508;48.790;9.028;2023-02-28T00:27:46;4.63;;;4.32;;
8946;SDS011;4508;48.790;9.028;2023-02-28T00:30:13;4.60;;;4.20;;
8946;SDS011;4508;48.790;9.028;2023-02-28T00:32:42;4.57;;;4.17;;
8946;SDS011;4508;48.790;9.028;2023-02-28T00:35:09;5.15;;;4.75;;
8946;SDS011;4508;48.790;9.028;2023-02-28T00:37:38;4.32;;;3.92;;
8946;SDS011;4508;48.790;9.028;2023-02-28T00:40:06;4.60;;;4.20;;
8946;SDS011;4508;48.790;9.028;2023-02-28T00:42:34;5.22;;;4.82;;
8946;SDS011;4508;48.790;9.028;2023-02-28T00:45:01;4.57;;;4.18;;
8946;SDS011;4508;48.790;9.028;2023-02-28T00:47:29;4.68;;;4.28;;
8946;SDS011;4508;48.790;9.028;2023-02-28T00:49:56;5.20;;;4.80;;
8946;SDS011;4508;48.790;9.028;2023-02-28T00:52:23;4.65;;;4.25;;
8946;SDS011;4508;48.790;9.028;2023-02-28T00:54:51;4.68;;;4.28;;
8946;SDS011;4508;48.790;9.028;2023-02-28T00:57:17;4.82;;;4.43;;
8946;SDS011;4508;48.790;9.028;2023-02-28T00:59:44;5.05;;;4.60;;
8946;SDS011;4508;48.790;9.028;2023-02-28T01:02:11;5.20;;;4.18;;
8946;SDS011;4508;48.790;9.028;2023-02-28T01:04:37;4.93;;;4.53;;
8946;SDS011;4508;48.790;9.028;2023-02-28T01:07:04;5.22;;;4.72;;
8946;SDS011;4508;48.790;9.028;2023-02-28T01:09:31;4.60;;;4.20;;
8946;SDS011;4508;48.790;9.028;2023-02-28T01:11:59;5.43;;;4.93;;
8946;SDS011;4508;48.790;9.028;2023-02-28T01:14:25;5.35;;;4.85;;
8946;SDS011;4508;48.790;9.028;2023-02-28T01:16:52;4.70;;;4.30;;
8946;SDS011;4508;48.790;9.028;2023-02-28T01:19:19;5.13;;;4.72;;
8946;SDS011;4508;48.790;9.028;2023-02-28T01:21:45;5.57;;;4.82;;
8946;SDS011;4508;48.790;9.028;2023-02-28T01:24:12;4.78;;;4.38;;
8946;SDS011;4508;48.790;9.028;2023-02-28T01:26:39;5.45;;;4.95;;
8946;SDS011;4508;48.790;9.028;2023-02-28T01:29:07;5.65;;;5.15;;
8946;SDS011;4508;48.790;9.028;2023-02-28T01:31:33;5.13;;;4.57;;
8946;SDS011;4508;48.790;9.028;2023-02-28T01:34:00;5.72;;;5.22;;
8946;SDS011;4508;48.790;9.028;2023-02-28T01:36:27;5.68;;;5.20;;
8946;SDS011;4508;48.790;9.028;2023-02-28T01:38:55;4.95;;;4.45;;
8946;SDS011;4508;48.790;9.028;2023-02-28T01:41:22;5.10;;;4.70;;
8946;SDS011;4508;48.790;9.028;2023-02-28T01:44:01;5.75;;;5.25;;
8946;SDS011;4508;48.790;9.028;2023-02-28T01:46:32;5.45;;;4.93;;
8946;SDS011;4508;48.790;9.028;2023-02-28T01:49:04;5.37;;;4.83;;
8946;SDS011;4508;48.790;9.028;2023-02-28T01:51:35;5.80;;;5.40;;
8946;SDS011;4508;48.790;9.028;2023-02-28T01:54:06;5.95;;;5.45;;
8946;SDS011;4508;48.790;9.028;2023-02-28T01:56:38;6.05;;;5.50;;
8946;SDS011;4508;48.790;9.028;2023-02-28T01:59:08;5.68;;;5.25;;
8946;SDS011;4508;48.790;9.028;2023-02-28T02:01:37;6.30;;;5.80;;
8946;SDS011;4508;48.790;9.028;2023-02-28T02:04:04;5.32;;;4.93;;
8946;SDS011;4508;48.790;9.028;2023-02-28T02:06:34;6.10;;;5.60;;
8946;SDS011;4508;48.790;9.028;2023-02-28T02:09:04;6.07;;;5.57;;
8946;SDS011;4508;48.790;9.028;2023-02-28T02:11:31;5.78;;;5.28;;
8946;SDS011;4508;48.790;9.028;2023-02-28T02:14:04;6.10;;;5.57;;
8946;SDS011;4508;48.790;9.028;2023-02-28T02:16:44;6.20;;;5.70;;
8946;SDS011;4508;48.790;9.028;2023-02-28T02:19:25;5.65;;;5.15;;
8946;SDS011;4508;48.790;9.028;2023-02-28T02:22:12;5.70;;;5.20;;
8946;SDS011;4508;48.790;9.028;2023-02-28T02:24:59;5.93;;;5.43;;
8946;SDS011;4508;48.790;9.028;2023-02-28T02:27:39;6.23;;;5.70;;
8946;SDS011;4508;48.790;9.028;2023-02-28T02:30:42;6.00;;;5.50;;
8946;SDS011;4508;48.790;9.028;2023-02-28T02:33:27;6.00;;;5.50;;
8946;SDS011;4508;48.790;9.028;2023-02-28T02:36:13;5.85;;;5.40;;
8946;SDS011;4508;48.790;9.028;2023-02-28T02:38:47;6.82;;;6.25;;
8946;SDS011;4508;48.790;9.028;2023-02-28T02:41:17;5.93;;;5.43;;
8946;SDS011;4508;48.790;9.028;2023-02-28T02:43:50;6.15;;;5.65;;
8946;SDS011;4508;48.790;9.028;2023-02-28T02:46:19;6.50;;;6.00;;
8946;SDS011;4508;48.790;9.028;2023-02-28T02:48:47;5.88;;;5.38;;
8946;SDS011;4508;48.790;9.028;2023-02-28T02:51:17;6.15;;;5.65;;
8946;SDS011;4508;48.790;9.028;2023-02-28T02:53:48;6.40;;;5.80;;
8946;SDS011;4508;48.790;9.028;2023-02-28T02:56:19;5.55;;;5.05;;
8946;SDS011;4508;48.790;9.028;2023-02-28T02:58:49;6.28;;;5.75;;
8946;SDS011;4508;48.790;9.028;2023-02-28T03:01:19;6.63;;;6.03;;
8946;SDS011;4508;48.790;9.028;2023-02-28T03:03:52;5.72;;;5.22;;
8946;SDS011;4508;48.790;9.028;2023-02-28T03:06:22;6.10;;;5.60;;
8946;SDS011;4508;48.790;9.028;2023-02-28T03:08:49;6.10;;;5.60;;
8946;SDS011;4508;48.790;9.028;2023-02-28T03:11:16;6.13;;;5.63;;
8946;SDS011;4508;48.790;9.028;2023-02-28T03:13:49;6.63;;;5.93;;
8946;SDS011;4508;48.790;9.028;2023-02-28T03:16:32;6.35;;;5.75;;
8946;SDS011;4508;48.790;9.028;2023-02-28T03:19:03;6.65;;;6.13;;
8946;SDS011;4508;48.790;9.028;2023-02-28T03:21:45;5.95;;;5.45;;
8946;SDS011;4508;48.790;9.028;2023-02-28T03:24:24;6.30;;;5.80;;
8946;SDS011;4508;48.790;9.028;2023-02-28T03:26:58;6.88;;;6.28;;
8946;SDS011;4508;48.790;9.028;2023-02-28T03:29:33;6.22;;;5.72;;
8946;SDS011;4508;48.790;9.028;2023-02-28T03:32:04;6.00;;;5.50;;
8946;SDS011;4508;48.790;9.028;2023-02-28T03:34:39;6.77;;;6.13;;
8946;SDS011;4508;48.790;9.028;2023-02-28T03:37:15;6.78;;;6.28;;
8946;SDS011;4508;48.790;9.028;2023-02-28T03:39:46;6.05;;;5.45;;
8946;SDS011;4508;48.790;9.028;2023-02-28T03:42:18;6.27;;;5.77;;
8946;SDS011;4508;48.790;9.028;2023-02-28T03:44:48;6.95;;;6.38;;
8946;SDS011;4508;48.790;9.028;2023-02-28T03:47:21;6.23;;;5.63;;
8946;SDS011;4508;48.790;9.028;2023-02-28T03:49:52;6.40;;;5.90;;
8946;SDS011;4508;48.790;9.028;2023-02-28T03:52:27;6.90;;;6.30;;
8946;SDS011;4508;48.790;9.028;2023-02-28T03:55:00;6.38;;;5.88;;
8946;SDS011;4508;48.790;9.028;2023-02-28T03:57:32;6.63;;;6.03;;
8946;SDS011;4508;48.790;9.028;2023-02-28T04:00:04;7.50;;;6.90;;
8946;SDS011;4508;48.790;9.028;2023-02-28T04:02:34;6.38;;;5.78;;
8946;SDS011;4508;48.790;9.028;2023-02-28T04:05:01;6.55;;;6.05;;
8946;SDS011;4508;48.790;9.028;2023-02-28T04:07:30;7.07;;;6.57;;
8946;SDS011;4508;48.790;9.028;2023-02-28T04:09:56;6.60;;;6.05;;
8946;SDS011;4508;48.790;9.028;2023-02-28T04:12:23;6.47;;;5.97;;
8946;SDS011;4508;48.790;9.028;2023-02-28T04:14:50;7.20;;;6.60;;
8946;SDS011;4508;48.790;9.028;2023-02-28T04:17:17;7.72;;;7.03;;
8946;SDS011;4508;48.790;9.028;2023-02-28T04:19:44;6.97;;;6.37;;
8946;SDS011;4508;48.790;9.028;2023-02-28T04:22:10;6.97;;;6.40;;
8946;SDS011;4508;48.790;9.028;2023-02-28T04:24:39;7.20;;;6.60;;
8946;SDS011;4508;48.790;9.028;2023-02-28T04:27:08;6.60;;;6.00;;
8946;SDS011;4508;48.790;9.028;2023-02-28T04:29:34;7.20;;;6.50;;
8946;SDS011;4508;48.790;9.028;2023-02-28T04:32:01;7.00;;;6.40;;
8946;SDS011;4508;48.790;9.028;2023-02-28T04:34:29;6.80;;;6.20;;
8946;SDS011;4508;48.790;9.028;2023-02-28T04:36:57;7.07;;;6.38;;
8946;SDS011;4508;48.790;9.028;2023-02-28T04:39:25;7.05;;;6.45;;
8946;SDS011;4508;48.790;9.028;2023-02-28T04:41:53;7.45;;;6.85;;
8946;SDS011;4508;48.790;9.028;2023-02-28T04:44:20;6.43;;;5.93;;
8946;SDS011;4508;48.790;9.028;2023-02-28T04:46:47;7.03;;;6.43;;
8946;SDS011;4508;48.790;9.028;2023-02-28T04:49:15;7.70;;;7.00;;
8946;SDS011;4508;48.790;9.028;2023-02-28T04:51:42;6.97;;;6.38;;
8946;SDS011;4508;48.790;9.028;2023-02-28T04:54:09;6.80;;;6.30;;
8946;SDS011;4508;48.790;9.028;2023-02-28T04:56:36;7.43;;;6.72;;
8946;SDS011;4508;48.790;9.028;2023-02-28T04:59:04;7.32;;;6.63;;
8946;SDS011;4508;48.790;9.028;2023-02-28T05:01:32;7.20;;;6.60;;
8946;SDS011;4508;48.790;9.028;2023-02-28T05:04:01;7.75;;;7.05;;
8946;SDS011;4508;48.790;9.028;2023-02-28T05:06:31;7.33;;;6.73;;
8946;SDS011;4508;48.790;9.028;2023-02-28T05:08:59;7.22;;;6.63;;
8946;SDS011;4508;48.790;9.028;2023-02-28T05:11:27;7.55;;;6.85;;
8946;SDS011;4508;48.790;9.028;2023-02-28T05:13:59;7.80;;;7.15;;
8946;SDS011;4508;48.790;9.028;2023-02-28T05:16:27;7.45;;;6.75;;
8946;SDS011;4508;48.790;9.028;2023-02-28T05:18:54;7.78;;;7.05;;
8946;SDS011;4508;48.790;9.028;2023-02-28T05:21:22;7.88;;;7.28;;
8946;SDS011;4508;48.790;9.028;2023-02-28T05:23:54;7.47;;;6.78;;
8946;SDS011;4508;48.790;9.028;2023-02-28T05:26:22;7.43;;;6.80;;
8946;SDS011;4508;48.790;9.028;2023-02-28T05:28:49;7.70;;;7.00;;
8946;SDS011;4508;48.790;9.028;2023-02-28T05:31:16;7.70;;;7.10;;
8946;SDS011;4508;48.790;9.028;2023-02-28T05:33:44;7.22;;;6.63;;
8946;SDS011;4508;48.790;9.028;2023-02-28T05:36:11;8.05;;;7.35;;
8946;SDS011;4508;48.790;9.028;2023-02-28T05:38:38;8.27;;;7.57;;
8946;SDS011;4508;48.790;9.028;2023-02-28T05:41:05;7.28;;;6.68;;
8946;SDS011;4508;48.790;9.028;2023-02-28T05:43:33;8.07;;;7.32;;
8946;SDS011;4508;48.790;9.028;2023-02-28T05:46:01;8.50;;;7.72;;
8946;SDS011;4508;48.790;9.028;2023-02-28T05:48:30;7.15;;;6.55;;
8946;SDS011;4508;48.790;9.028;2023-02-28T05:50:58;7.85;;;7.15;;
8946;SDS011;4508;48.790;9.028;2023-02-28T05:53:25;7.65;;;7.03;;
8946;SDS011;4508;48.790;9.028;2023-02-28T05:55:52;7.95;;;7.25;;
8946;SDS011;4508;48.790;9.028;2023-02-28T05:58:18;8.00;;;7.30;;
8946;SDS011;4508;48.790;9.028;2023-02-28T06:00:45;8.00;;;7.30;;
8946;SDS011;4508;48.790;9.028;2023-02-28T06:03:12;8.17;;;7.47;;
8946;SDS011;4508;48.790;9.028;2023-02-28T06:05:38;7.97;;;7.27;;
8946;SDS011;4508;48.790;9.028;2023-02-28T06:08:06;8.30;;;7.50;;
8946;SDS011;4508;48.790;9.028;2023-02-28T06:10:33;8.35;;;7.65;;
8946;SDS011;4508;48.790;9.028;2023-02-28T06:13:00;7.95;;;7.25;;
8946;SDS011;4508;48.790;9.028;2023-02-28T06:15:27;7.83;;;7.13;;
8946;SDS011;4508;48.790;9.028;2023-02-28T06:17:55;8.57;;;7.87;;
8946;SDS011;4508;48.790;9.028;2023-02-28T06:20:23;8.82;;;8.02;;
8946;SDS011;4508;48.790;9.028;2023-02-28T06:22:51;9.00;;;8.20;;
8946;SDS011;4508;48.790;9.028;2023-02-28T06:25:20;9.10;;;8.30;;
8946;SDS011;4508;48.790;9.028;2023-02-28T06:27:47;8.15;;;7.45;;
8946;SDS011;4508;48.790;9.028;2023-02-28T06:30:14;8.80;;;7.97;;
8946;SDS011;4508;48.790;9.028;2023-02-28T06:32:41;8.80;;;8.00;;
8946;SDS011;4508;48.790;9.028;2023-02-28T06:35:08;8.32;;;7.63;;
8946;SDS011;4508;48.790;9.028;2023-02-28T06:37:34;8.40;;;7.70;;
8946;SDS011;4508;48.790;9.028;2023-02-28T06:40:01;9.05;;;8.25;;
8946;SDS011;4508;48.790;9.028;2023-02-28T06:42:32;8.75;;;7.90;;
8946;SDS011;4508;48.790;9.028;2023-02-28T06:44:58;8.65;;;7.85;;
8946;SDS011;4508;48.790;9.028;2023-02-28T06:47:28;8.88;;;8.07;;
8946;SDS011;4508;48.790;9.028;2023-02-28T06:49:56;9.30;;;8.52;;
8946;SDS011;4508;48.790;9.028;2023-02-28T06:52:23;8.30;;;7.60;;
8946;SDS011;4508;48.790;9.028;2023-02-28T06:54:50;9.03;;;8.10;;
8946;SDS011;4508;48.790;9.028;2023-02-28T06:57:24;9.13;;;8.33;;
8946;SDS011;4508;48.790;9.028;2023-02-28T06:59:52;8.50;;;7.73;;
8946;SDS011;4508;48.790;9.028;2023-02-28T07:02:19;8.77;;;7.97;;
8946;SDS011;4508;48.790;9.028;2023-02-28T07:04:46;9.05;;;8.25;;
8946;SDS011;4508;48.790;9.028;2023-02-28T07:07:12;9.73;;;8.93;;
8946;SDS011;4508;48.790;9.028;2023-02-28T07:09:39;8.38;;;7.68;;
8946;SDS011;4508;48.790;9.028;2023-02-28T07:12:06;10.07;;;8.57;;
8946;SDS011;4508;48.790;9.028;2023-02-28T07:14:32;9.30;;;8.50;;
8946;SDS011;4508;48.790;9.028;2023-02-28T07:17:00;9.18;;;8.27;;
8946;SDS011;4508;48.790;9.028;2023-02-28T07:19:27;8.88;;;8.18;;
8946;SDS011;4508;48.790;9.028;2023-02-28T07:21:54;9.43;;;8.63;;
8946;SDS011;4508;48.790;9.028;2023-02-28T07:24:20;9.43;;;8.63;;
8946;SDS011;4508;48.790;9.028;2023-02-28T07:26:50;8.98;;;8.18;;
8946;SDS011;4508;48.790;9.028;2023-02-28T07:29:17;9.55;;;8.65;;
8946;SDS011;4508;48.790;9.028;2023-02-28T07:31:44;9.40;;;8.50;;
8946;SDS011;4508;48.790;9.028;2023-02-28T07:34:12;8.85;;;8.13;;
8946;SDS011;4508;48.790;9.028;2023-02-28T07:36:39;8.88;;;8.07;;
8946;SDS011;4508;48.790;9.028;2023-02-28T07:39:06;10.15;;;9.15;;
8946;SDS011;4508;48.790;9.028;2023-02-28T07:41:34;9.50;;;8.60;;
8946;SDS011;4508;48.790;9.028;2023-02-28T07:44:04;9.40;;;8.60;;
8946;SDS011;4508;48.790;9.028;2023-02-28T07:46:31;9.38;;;8.57;;
8946;SDS011;4508;48.790;9.028;2023-02-28T07:49:00;8.80;;;8.00;;
8946;SDS011;4508;48.790;9.028;2023-02-28T07:51:29;9.00;;;8.20;;
8946;SDS011;4508;48.790;9.028;2023-02-28T07:53:56;9.55;;;8.65;;
8946;SDS011;4508;48.790;9.028;2023-02-28T07:56:23;9.30;;;8.50;;
8946;SDS011;4508;48.790;9.028;2023-02-28T07:58:49;9.27;;;8.38;;
8946;SDS011;4508;48.790;9.028;2023-02-28T08:01:16;9.15;;;8.35;;
8946;SDS011;4508;48.790;9.028;2023-02-28T08:03:44;9.73;;;8.82;;
8946;SDS011;4508;48.790;9.028;2023-02-28T08:06:15;9.40;;;8.50;;
8946;SDS011;4508;48.790;9.028;2023-02-28T08:08:44;9.75;;;8.95;;
8946;SDS011;4508;48.790;9.028;2023-02-28T08:11:10;9.80;;;8.90;;
8946;SDS011;4508;48.790;9.028;2023-02-28T08:13:37;9.43;;;8.50;;
8946;SDS011;4508;48.790;9.028;2023-02-28T08:16:04;9.80;;;8.90;;
8946;SDS011;4508;48.790;9.028;2023-02-28T08:18:32;10.75;;;9.65;;
8946;SDS011;4508;48.790;9.028;2023-02-28T08:20:58;9.73;;;8.75;;
8946;SDS011;4508;48.790;9.028;2023-02-28T08:23:25;9.20;;;8.40;;
8946;SDS011;4508;48.790;9.028;2023-02-28T08:25:56;10.05;;;9.15;;
8946;SDS011;4508;48.790;9.028;2023-02-28T08:28:23;9.38;;;8.48;;
8946;SDS011;4508;48.790;9.028;2023-02-28T08:30:50;9.70;;;8.80;;
8946;SDS011;4508;48.790;9.028;2023-02-28T08:33:17;10.20;;;9.25;;
8946;SDS011;4508;48.790;9.028;2023-02-28T08:35:43;10.18;;;9.18;;
8946;SDS011;4508;48.790;9.028;2023-02-28T08:38:10;9.80;;;8.93;;
8946;SDS011;4508;48.790;9.028;2023-02-28T08:40:37;10.38;;;9.38;;
8946;SDS011;4508;48.790;9.028;2023-02-28T08:43:04;10.67;;;9.67;;
8946;SDS011;4508;48.790;9.028;2023-02-28T08:45:31;9.30;;;8.50;;
8946;SDS011;4508;48.790;9.028;2023-02-28T08:47:58;9.90;;;8.90;;
8946;SDS011;4508;48.790;9.028;2023-02-28T08:50:25;10.20;;;9.30;;
8946;SDS011;4508;48.790;9.028;2023-02-28T08:52:51;10.20;;;9.20;;
8946;SDS011;4508;48.790;9.028;2023-02-28T08:55:18;10.27;;;9.27;;
8946;SDS011;4508;48.790;9.028;2023-02-28T08:57:45;10.10;;;9.20;;
8946;SDS011;4508;48.790;9.028;2023-02-28T09:00:13;10.40;;;9.48;;
8946;SDS011;4508;48.790;9.028;2023-02-28T09:02:40;10.05;;;9.15;;
8946;SDS011;4508;48.790;9.028;2023-02-28T09:05:08;10.13;;;9.23;;
8946;SDS011;4508;48.790;9.028;2023-02-28T09:07:35;10.23;;;9.32;;
8946;SDS011;4508;48.790;9.028;2023-02-28T09:10:02;10.10;;;9.20;;
8946;SDS011;4508;48.790;9.028;2023-02-28T09:12:31;10.70;;;9.70;;
8946;SDS011;4508;48.790;9.028;2023-02-28T09:14:59;10.40;;;9.50;;
8946;SDS011;4508;48.790;9.028;2023-02-28T09:17:27;10.98;;;9.95;;
8946;SDS011;4508;48.790;9.028;2023-02-28T09:19:54;10.68;;;9.57;;
8946;SDS011;4508;48.790;9.028;2023-02-28T09:22:21;10.10;;;9.20;;
8946;SDS011;4508;48.790;9.028;2023-02-28T09:24:48;10.75;;;9.75;;
8946;SDS011;4508;48.790;9.028;2023-02-28T09:27:15;10.88;;;9.88;;
8946;SDS011;4508;48.790;9.028;2023-02-28T09:29:41;10.95;;;9.85;;
8946;SDS011;4508;48.790;9.028;2023-02-28T09:32:08;11.40;;;10.30;;
8946;SDS011;4508;48.790;9.028;2023-02-28T09:34:36;11.50;;;10.50;;
8946;SDS011;4508;48.790;9.028;2023-02-28T09:37:03;10.40;;;9.50;;
8946;SDS011;4508;48.790;9.028;2023-02-28T09:39:30;10.77;;;9.77;;
8946;SDS011;4508;48.790;9.028;2023-02-28T09:41:57;11.07;;;10.07;;
8946;SDS011;4508;48.790;9.028;2023-02-28T09:44:26;10.95;;;9.95;;
8946;SDS011;4508;48.790;9.028;2023-02-28T09:46:58;10.43;;;9.43;;
8946;SDS011;4508;48.790;9.028;2023-02-28T09:49:31;10.25;;;9.40;;
8946;SDS011;4508;48.790;9.028;2023-02-28T09:52:05;10.93;;;9.93;;
8946;SDS011;4508;48.790;9.028;2023-02-28T09:54:36;10.20;;;9.30;;
8946;SDS011;4508;48.790;9.028;2023-02-28T09:57:06;10.95;;;9.95;;
8946;SDS011;4508;48.790;9.028;2023-02-28T09:59:48;10.65;;;9.65;;
8946;SDS011;4508;48.790;9.028;2023-02-28T10:05:25;11.38;;;10.38;;
8946;SDS011;4508;48.790;9.028;2023-02-28T10:08:00;10.65;;;9.75;;
8946;SDS011;4508;48.790;9.028;2023-02-28T10:10:34;10.20;;;9.25;;
8946;SDS011;4508;48.790;9.028;2023-02-28T10:13:05;10.98;;;9.98;;
8946;SDS011;4508;48.790;9.028;2023-02-28T10:15:39;11.03;;;10.13;;
8946;SDS011;4508;48.790;9.028;2023-02-28T10:18:08;10.30;;;9.40;;
8946;SDS011;4508;48.790;9.028;2023-02-28T10:20:39;10.80;;;9.80;;
8946;SDS011;4508;48.790;9.028;2023-02-28T10:23:11;11.27;;;10.27;;
8946;SDS011;4508;48.790;9.028;2023-02-28T10:25:43;11.43;;;10.43;;
8946;SDS011;4508;48.790;9.028;2023-02-28T10:28:14;10.82;;;9.93;;
8946;SDS011;4508;48.790;9.028;2023-02-28T10:30:44;10.90;;;10.00;;
8946;SDS011;4508;48.790;9.028;2023-02-28T10:33:22;9.82;;;8.90;;
8946;SDS011;4508;48.790;9.028;2023-02-28T10:35:51;11.23;;;10.23;;
8946;SDS011;4508;48.790;9.028;2023-02-28T10:38:20;10.38;;;9.45;;
8946;SDS011;4508;48.790;9.028;2023-02-28T10:40:49;10.80;;;9.80;;
8946;SDS011;4508;48.790;9.028;2023-02-28T10:43:22;10.85;;;9.93;;
8946;SDS011;4508;48.790;9.028;2023-02-28T10:45:58;11.23;;;10.23;;
8946;SDS011;4508;48.790;9.028;2023-02-28T10:48:29;11.40;;;10.40;;
8946;SDS011;4508;48.790;9.028;2023-02-28T10:50:59;11.13;;;10.13;;
8946;SDS011;4508;48.790;9.028;2023-02-28T10:53:34;11.55;;;10.45;;
8946;SDS011;4508;48.790;9.028;2023-02-28T10:56:04;11.10;;;10.10;;
8946;SDS011;4508;48.790;9.028;2023-02-28T10:58:45;11.50;;;10.50;;
8946;SDS011;4508;48.790;9.028;2023-02-28T11:01:19;10.15;;;9.23;;
8946;SDS011;4508;48.790;9.028;2023-02-28T11:03:46;11.02;;;10.02;;
8946;SDS011;4508;48.790;9.028;2023-02-28T11:06:15;11.18;;;10.07;;
8946;SDS011;4508;48.790;9.028;2023-02-28T11:08:47;10.90;;;10.00;;
8946;SDS011;4508;48.790;9.028;2023-02-28T11:11:16;11.10;;;10.10;;
8946;SDS011;4508;48.790;9.028;2023-02-28T11:13:44;10.57;;;9.63;;
8946;SDS011;4508;48.790;9.028;2023-02-28T11:16:13;10.52;;;9.57;;
8946;SDS011;4508;48.790;9.028;2023-02-28T11:18:42;9.50;;;8.60;;
8946;SDS011;4508;48.790;9.028;2023-02-28T11:21:18;10.63;;;9.73;;
8946;SDS011;4508;48.790;9.028;2023-02-28T11:23:49;10.68;;;9.70;;
8946;SDS011;4508;48.790;9.028;2023-02-28T11:26:36;10.88;;;9.77;;
8946;SDS011;4508;48.790;9.028;2023-02-28T11:29:12;10.15;;;9.25;;
8946;SDS011;4508;48.790;9.028;2023-02-28T11:31:48;9.50;;;8.70;;
8946;SDS011;4508;48.790;9.028;2023-02-28T11:34:42;9.82;;;8.93;;
8946;SDS011;4508;48.790;9.028;2023-02-28T11:37:11;10.00;;;9.10;;
8946;SDS011;4508;48.790;9.028;2023-02-28T11:39:40;10.15;;;9.25;;
8946;SDS011;4508;48.790;9.028;2023-02-28T11:42:14;10.10;;;9.20;;
8946;SDS011;4508;48.790;9.028;2023-02-28T11:45:03;9.77;;;8.88;;
8946;SDS011;4508;48.790;9.028;2023-02-28T11:47:51;9.73;;;8.90;;
8946;SDS011;4508;48.790;9.028;2023-02-28T11:50:30;9.90;;;9.00;;
8946;SDS011;4508;48.790;9.028;2023-02-28T11:53:10;9.98;;;9.00;;
8946;SDS011;4508;48.790;9.028;2023-02-28T11:55:44;9.82;;;8.95;;
8946;SDS011;4508;48.790;9.028;2023-02-28T11:58:17;9.45;;;8.60;;
8946;SDS011;4508;48.790;9.028;2023-02-28T12:00:56;10.00;;;8.98;;
8946;SDS011;4508;48.790;9.028;2023-02-28T12:03:31;9.60;;;8.70;;
8946;SDS011;4508;48.790;9.028;2023-02-28T12:06:09;9.77;;;8.88;;
8946;SDS011;4508;48.790;9.028;2023-02-28T12:08:48;9.70;;;8.80;;
8946;SDS011;4508;48.790;9.028;2023-02-28T12:11:26;9.30;;;8.50;;
8946;SDS011;4508;48.790;9.028;2023-02-28T12:14:06;9.75;;;8.85;;
8946;SDS011;4508;48.790;9.028;2023-02-28T12:16:51;9.23;;;8.43;;
8946;SDS011;4508;48.790;9.028;2023-02-28T12:19:30;9.43;;;8.63;;
8946;SDS011;4508;48.790;9.028;2023-02-28T12:22:09;9.60;;;8.70;;
8946;SDS011;4508;48.790;9.028;2023-02-28T12:24:52;9.68;;;8.82;;
8946;SDS011;4508;48.790;9.028;2023-02-28T12:27:31;9.52;;;8.65;;
8946;SDS011;4508;48.790;9.028;2023-02-28T12:30:03;9.20;;;8.40;;
8946;SDS011;4508;48.790;9.028;2023-02-28T12:32:34;9.27;;;8.38;;
8946;SDS011;4508;48.790;9.028;2023-02-28T12:35:04;9.15;;;8.20;;
8946;SDS011;4508;48.790;9.028;2023-02-28T12:37:40;9.05;;;8.20;;
8946;SDS011;4508;48.790;9.028;2023-02-28T12:40:11;9.15;;;8.25;;
8946;SDS011;4508;48.790;9.028;2023-02-28T12:42:43;9.60;;;8.80;;
8946;SDS011;4508;48.790;9.028;2023-02-28T12:45:16;8.70;;;8.00;;
8946;SDS011;4508;48.790;9.028;2023-02-28T12:47:46;8.90;;;8.15;;
8946;SDS011;4508;48.790;9.028;2023-02-28T12:50:17;8.65;;;7.95;;
8946;SDS011;4508;48.790;9.028;2023-02-28T12:52:48;8.73;;;7.93;;
8946;SDS011;4508;48.790;9.028;2023-02-28T12:55:23;8.90;;;8.10;;
8946;SDS011;4508;48.790;9.028;2023-02-28T12:58:00;8.00;;;7.30;;
8946;SDS011;4508;48.790;9.028;2023-02-28T13:00:34;8.03;;;7.33;;
8946;SDS011;4508;48.790;9.028;2023-02-28T13:03:17;8.25;;;7.45;;
8946;SDS011;4508;48.790;9.028;2023-02-28T13:06:05;8.60;;;7.90;;
8946;SDS011;4508;48.790;9.028;2023-02-28T13:08:59;8.70;;;7.80;;
8946;SDS011;4508;48.790;9.028;2023-02-28T13:11:31;8.98;;;8.07;;
8946;SDS011;4508;48.790;9.028;2023-02-28T13:14:02;8.38;;;7.57;;
8946;SDS011;4508;48.790;9.028;2023-02-28T13:19:19;8.27;;;7.57;;
8946;SDS011;4508;48.790;9.028;2023-02-28T13:21:48;8.55;;;7.85;;
8946;SDS011;4508;48.790;9.028;2023-02-28T13:27:11;9.20;;;8.40;;
8946;SDS011;4508;48.790;9.028;2023-02-28T13:30:00;8.85;;;8.07;;
8946;SDS011;4508;48.790;9.028;2023-02-28T13:32:51;8.98;;;8.18;;
8946;SDS011;4508;48.790;9.028;2023-02-28T13:36:09;8.48;;;7.68;;
8946;SDS011;4508;48.790;9.028;2023-02-28T13:38:54;8.48;;;7.78;;
8946;SDS011;4508;48.790;9.028;2023-02-28T13:41:41;9.25;;;8.45;;
8946;SDS011;4508;48.790;9.028;2023-02-28T13:44:12;9.00;;;8.20;;
8946;SDS011;4508;48.790;9.028;2023-02-28T13:49:49;8.18;;;7.47;;
8946;SDS011;4508;48.790;9.028;2023-02-28T13:52:18;8.15;;;7.35;;
8946;SDS011;4508;48.790;9.028;2023-02-28T13:57:53;8.05;;;7.35;;
8946;SDS011;4508;48.790;9.028;2023-02-28T14:00:30;8.73;;;7.93;;
8946;SDS011;4508;48.790;9.028;2023-02-28T14:03:10;8.35;;;7.63;;
8946;SDS011;4508;48.790;9.028;2023-02-28T14:08:45;8.60;;;7.80;;
8946;SDS011;4508;48.790;9.028;2023-02-28T14:11:25;8.77;;;7.97;;
8946;SDS011;4508;48.790;9.028;2023-02-28T14:13:54;8.25;;;7.45;;
8946;SDS011;4508;48.790;9.028;2023-02-28T14:16:22;8.73;;;8.00;;
8946;SDS011;4508;48.790;9.028;2023-02-28T14:18:56;8.60;;;7.90;;
8946;SDS011;4508;48.790;9.028;2023-02-28T14:21:27;8.65;;;7.93;;
8946;SDS011;4508;48.790;9.028;2023-02-28T14:27:08;8.73;;;7.93;;
8946;SDS011;4508;48.790;9.028;2023-02-28T14:29:51;8.43;;;7.70;;
8946;SDS011;4508;48.790;9.028;2023-02-28T14:32:35;8.32;;;7.60;;
8946;SDS011;4508;48.790;9.028;2023-02-28T14:35:16;8.85;;;8.05;;
8946;SDS011;4508;48.790;9.028;2023-02-28T14:37:56;8.82;;;8.02;;
8946;SDS011;4508;48.790;9.028;2023-02-28T14:40:25;8.75;;;8.00;;
8946;SDS011;4508;48.790;9.028;2023-02-28T14:42:56;8.82;;;8.02;;
8946;SDS011;4508;48.790;9.028;2023-02-28T14:45:24;8.57;;;7.82;;
8946;SDS011;4508;48.790;9.028;2023-02-28T14:47:54;8.88;;;8.07;;
8946;SDS011;4508;48.790;9.028;2023-02-28T14:50:24;9.20;;;8.30;;
8946;SDS011;4508;48.790;9.028;2023-02-28T14:52:55;8.35;;;7.65;;
8946;SDS011;4508;48.790;9.028;2023-02-28T14:55:28;8.52;;;7.78;;
8946;SDS011;4508;48.790;9.028;2023-02-28T14:57:57;8.98;;;8.18;;
8946;SDS011;4508;48.790;9.028;2023-02-28T15:00:25;8.63;;;7.93;;
8946;SDS011;4508;48.790;9.028;2023-02-28T15:02:54;8.93;;;8.07;;
8946;SDS011;4508;48.790;9.028;2023-02-28T15:05:25;9.25;;;8.38;;
8946;SDS011;4508;48.790;9.028;2023-02-28T15:08:01;9.05;;;8.20;;
8946;SDS011;4508;48.790;9.028;2023-02-28T15:10:36;8.57;;;7.87;;
8946;SDS011;4508;48.790;9.028;2023-02-28T15:13:05;8.90;;;8.10;;
8946;SDS011;4508;48.790;9.028;2023-02-28T15:15:41;8.38;;;7.68;;
8946;SDS011;4508;48.790;9.028;2023-02-28T15:18:14;8.20;;;7.43;;
8946;SDS011;4508;48.790;9.028;2023-02-28T15:20:50;9.00;;;8.20;;
8946;SDS011;4508;48.790;9.028;2023-02-28T15:23:17;8.50;;;7.70;;
8946;SDS011;4508;48.790;9.028;2023-02-28T15:25:46;8.60;;;7.90;;
8946;SDS011;4508;48.790;9.028;2023-02-28T15:28:14;9.20;;;8.40;;
8946;SDS011;4508;48.790;9.028;2023-02-28T15:30:51;8.85;;;8.05;;
8946;SDS011;4508;48.790;9.028;2023-02-28T15:33:24;9.60;;;8.70;;
8946;SDS011;4508;48.790;9.028;2023-02-28T15:36:04;9.05;;;8.25;;
8946;SDS011;4508;48.790;9.028;2023-02-28T15:38:33;9.20;;;8.30;;
8946;SDS011;4508;48.790;9.028;2023-02-28T15:41:01;8.77;;;8.07;;
8946;SDS011;4508;48.790;9.028;2023-02-28T15:43:33;9.40;;;8.50;;
8946;SDS011;4508;48.790;9.028;2023-02-28T15:46:02;10.02;;;9.13;;
8946;SDS011;4508;48.790;9.028;2023-02-28T15:48:31;9.55;;;8.75;;
8946;SDS011;4508;48.790;9.028;2023-02-28T15:51:01;9.38;;;8.57;;
8946;SDS011;4508;48.790;9.028;2023-02-28T15:53:33;9.40;;;8.57;;
8946;SDS011;4508;48.790;9.028;2023-02-28T15:56:03;9.40;;;8.50;;